sensor_id;sensor_type;location;lat;lon;timestamp;temperature;humidity
41985;DHT22;28319;48.116;10.818;2023-08-30T00:04:05;12.00;99.90
41985;DHT22;28319;48.116;10.818;2023-08-30T00:09:07;12.10;99.90
41985;DHT22;28319;48.116;10.818;2023-08-30T00:14:10;12.00;99.90
41985;DHT22;28319;48.116;10.818;2023-08-30T00:19:12;12.00;99.90
41985;DHT22;28319;48.116;10.818;2023-08-30T00:24:16;12.00;99.90
41985;DHT22;28319;48.116;10.818;2023-08-30T00:29:19;12.00;99.90
41985;DHT22;28319;48.116;10.818;2023-08-30T00:34:21;12.10;99.90
41985;DHT22;28319;48.116;10.818;2023-08-30T00:39:23;12.00;99.90
41985;DHT22;28319;48.116;10.818;2023-08-30T00:44:27;12.00;99.90
41985;DHT22;28319;48.116;10.818;2023-08-30T00:49:30;12.00;99.90
41985;DHT22;28319;48.116;10.818;2023-08-30T00:54:32;12.00;99.90
41985;DHT22;28319;48.116;10.818;2023-08-30T00:59:36;12.00;99.90
41985;DHT22;28319;48.116;10.818;2023-08-30T01:04:38;12.00;99.90
41985;DHT22;28319;48.116;10.818;2023-08-30T01:09:41;12.00;99.90
41985;DHT22;28319;48.116;10.818;2023-08-30T01:14:48;11.90;99.90
41985;DHT22;28319;48.116;10.818;2023-08-30T01:19:58;11.90;99.90
41985;DHT22;28319;48.116;10.818;2023-08-30T01:25:14;11.90;99.90
41985;DHT22;28319;48.116;10.818;2023-08-30T01:30:20;11.90;99.90
41985;DHT22;28319;48.116;10.818;2023-08-30T01:35:23;11.90;99.90
41985;DHT22;28319;48.116;10.818;2023-08-30T01:40:27;11.80;99.90
41985;DHT22;28319;48.116;10.818;2023-08-30T01:45:32;11.80;99.90
41985;DHT22;28319;48.116;10.818;2023-08-30T01:50:35;11.80;99.90
41985;DHT22;28319;48.116;10.818;2023-08-30T01:55:38;11.80;99.90
41985;DHT22;28319;48.116;10.818;2023-08-30T02:00:42;11.80;99.90
41985;DHT22;28319;48.116;10.818;2023-08-30T02:05:52;11.80;99.90
41985;DHT22;28319;48.116;10.818;2023-08-30T02:11:02;11.80;99.90
41985;DHT22;28319;48.116;10.818;2023-08-30T02:16:08;11.80;99.90
41985;DHT22;28319;48.116;10.818;2023-08-30T02:21:11;11.80;99.90
41985;DHT22;28319;48.116;10.818;2023-08-30T02:26:13;11.80;99.90
41985;DHT22;28319;48.116;10.818;2023-08-30T02:31:17;11.90;99.90
41985;DHT22;28319;48.116;10.818;2023-08-30T02:36:19;11.80;99.90
41985;DHT22;28319;48.116;10.818;2023-08-30T02:41:21;11.70;99.90
41985;DHT22;28319;48.116;10.818;2023-08-30T02:46:25;11.70;99.90
41985;DHT22;28319;48.116;10.818;2023-08-30T02:51:27;11.80;99.90
41985;DHT22;28319;48.116;10.818;2023-08-30T02:56:29;11.80;99.90
41985;DHT22;28319;48.116;10.818;2023-08-30T03:01:33;11.80;99.90
41985;DHT22;28319;48.116;10.818;2023-08-30T03:06:35;11.80;99.90
41985;DHT22;28319;48.116;10.818;2023-08-30T03:11:37;11.80;99.90
41985;DHT22;28319;48.116;10.818;2023-08-30T03:16:41;11.80;99.90
41985;DHT22;28319;48.116;10.818;2023-08-30T03:21:43;11.80;99.90
41985;DHT22;28319;48.116;10.818;2023-08-30T03:26:45;11.70;99.90
41985;DHT22;28319;48.116;10.818;2023-08-30T03:31:49;11.70;99.90
41985;DHT22;28319;48.116;10.818;2023-08-30T03:36:51;11.80;99.90
41985;DHT22;28319;48.116;10.818;2023-08-30T03:41:54;11.70;99.90
41985;DHT22;28319;48.116;10.818;2023-08-30T03:46:58;11.70;99.90
41985;DHT22;28319;48.116;10.818;2023-08-30T03:52:03;11.70;99.90
41985;DHT22;28319;48.116;10.818;2023-08-30T03:57:05;11.70;99.90
41985;DHT22;28319;48.116;10.818;2023-08-30T04:02:09;11.70;99.90
41985;DHT22;28319;48.116;10.818;2023-08-30T04:07:11;11.70;99.90
41985;DHT22;28319;48.116;10.818;2023-08-30T04:12:13;11.70;99.90
41985;DHT22;28319;48.116;10.818;2023-08-30T04:17:16;11.70;99.90
41985;DHT22;28319;48.116;10.818;2023-08-30T04:22:19;11.70;99.90
41985;DHT22;28319;48.116;10.818;2023-08-30T04:27:21;11.70;99.90
41985;DHT22;28319;48.116;10.818;2023-08-30T04:32:24;11.70;99.90
41985;DHT22;28319;48.116;10.818;2023-08-30T04:37:30;11.70;99.90
41985;DHT22;28319;48.116;10.818;2023-08-30T04:42:32;11.70;99.90
41985;DHT22;28319;48.116;10.818;2023-08-30T04:47:36;11.70;99.90
41985;DHT22;28319;48.116;10.818;2023-08-30T04:52:38;11.60;99.90
41985;DHT22;28319;48.116;10.818;2023-08-30T04:57:40;11.70;99.90
41985;DHT22;28319;48.116;10.818;2023-08-30T05:02:46;11.70;99.90
41985;DHT22;28319;48.116;10.818;2023-08-30T05:07:48;11.70;99.90
41985;DHT22;28319;48.116;10.818;2023-08-30T05:12:51;11.70;99.90
41985;DHT22;28319;48.116;10.818;2023-08-30T05:17:54;11.70;99.90
41985;DHT22;28319;48.116;10.818;2023-08-30T05:22:56;11.70;99.90
41985;DHT22;28319;48.116;10.818;2023-08-30T05:27:58;11.70;99.90
41985;DHT22;28319;48.116;10.818;2023-08-30T05:33:04;11.70;99.90
41985;DHT22;28319;48.116;10.818;2023-08-30T05:38:06;11.80;99.90
41985;DHT22;28319;48.116;10.818;2023-08-30T05:43:08;11.80;99.90
41985;DHT22;28319;48.116;10.818;2023-08-30T05:48:12;11.80;99.90
41985;DHT22;28319;48.116;10.818;2023-08-30T05:53:14;11.90;99.90
41985;DHT22;28319;48.116;10.818;2023-08-30T05:58:16;11.90;99.90
41985;DHT22;28319;48.116;10.818;2023-08-30T06:03:20;11.90;99.90
41985;DHT22;28319;48.116;10.818;2023-08-30T06:08:22;12.00;99.90
41985;DHT22;28319;48.116;10.818;2023-08-30T06:13:24;12.00;99.90
41985;DHT22;28319;48.116;10.818;2023-08-30T06:18:30;12.00;99.90
41985;DHT22;28319;48.116;10.818;2023-08-30T06:23:33;12.00;99.90
41985;DHT22;28319;48.116;10.818;2023-08-30T06:28:35;12.10;99.90
41985;DHT22;28319;48.116;10.818;2023-08-30T06:33:39;12.10;99.90
41985;DHT22;28319;48.116;10.818;2023-08-30T06:38:41;12.20;99.90
41985;DHT22;28319;48.116;10.818;2023-08-30T06:43:43;12.40;99.90
41985;DHT22;28319;48.116;10.818;2023-08-30T06:48:48;12.40;99.90
41985;DHT22;28319;48.116;10.818;2023-08-30T06:53:50;12.40;99.90
41985;DHT22;28319;48.116;10.818;2023-08-30T06:58:52;12.60;99.90
41985;DHT22;28319;48.116;10.818;2023-08-30T07:03:56;12.60;99.90
41985;DHT22;28319;48.116;10.818;2023-08-30T07:08:58;12.60;99.90
41985;DHT22;28319;48.116;10.818;2023-08-30T07:14:00;12.60;99.90
41985;DHT22;28319;48.116;10.818;2023-08-30T07:19:05;12.70;99.90
41985;DHT22;28319;48.116;10.818;2023-08-30T07:24:08;12.80;99.90
41985;DHT22;28319;48.116;10.818;2023-08-30T07:29:10;12.90;99.90
41985;DHT22;28319;48.116;10.818;2023-08-30T07:34:14;12.90;99.90
41985;DHT22;28319;48.116;10.818;2023-08-30T07:39:16;12.90;99.90
41985;DHT22;28319;48.116;10.818;2023-08-30T07:44:18;13.00;99.90
41985;DHT22;28319;48.116;10.818;2023-08-30T07:49:22;13.20;99.90
41985;DHT22;28319;48.116;10.818;2023-08-30T07:54:25;13.30;99.90
41985;DHT22;28319;48.116;10.818;2023-08-30T07:59:27;13.40;99.90
41985;DHT22;28319;48.116;10.818;2023-08-30T08:04:30;13.40;99.90
41985;DHT22;28319;48.116;10.818;2023-08-30T08:09:32;13.40;99.90
41985;DHT22;28319;48.116;10.818;2023-08-30T08:14:34;13.60;99.90
41985;DHT22;28319;48.116;10.818;2023-08-30T08:19:38;13.60;99.90
41985;DHT22;28319;48.116;10.818;2023-08-30T08:24:40;13.70;99.90
41985;DHT22;28319;48.116;10.818;2023-08-30T08:29:44;13.80;99.90
41985;DHT22;28319;48.116;10.818;2023-08-30T08:34:48;13.80;99.90
41985;DHT22;28319;48.116;10.818;2023-08-30T08:39:50;13.90;99.90
41985;DHT22;28319;48.116;10.818;2023-08-30T08:44:53;13.90;99.90
41985;DHT22;28319;48.116;10.818;2023-08-30T08:49:57;14.00;99.90
41985;DHT22;28319;48.116;10.818;2023-08-30T08:55:00;14.10;99.90
41985;DHT22;28319;48.116;10.818;2023-08-30T09:00:04;14.20;99.90
41985;DHT22;28319;48.116;10.818;2023-08-30T09:05:10;14.50;99.90
41985;DHT22;28319;48.116;10.818;2023-08-30T09:10:12;14.50;99.90
41985;DHT22;28319;48.116;10.818;2023-08-30T09:15:14;14.80;99.90
41985;DHT22;28319;48.116;10.818;2023-08-30T09:20:20;14.80;99.90
41985;DHT22;28319;48.116;10.818;2023-08-30T09:25:23;14.90;99.90
41985;DHT22;28319;48.116;10.818;2023-08-30T09:30:26;15.00;99.90
41985;DHT22;28319;48.116;10.818;2023-08-30T09:35:30;15.10;99.90
41985;DHT22;28319;48.116;10.818;2023-08-30T09:40:32;15.40;99.90
41985;DHT22;28319;48.116;10.818;2023-08-30T09:45:35;16.00;99.90
41985;DHT22;28319;48.116;10.818;2023-08-30T09:50:39;16.40;99.90
41985;DHT22;28319;48.116;10.818;2023-08-30T09:55:43;16.70;99.90
41985;DHT22;28319;48.116;10.818;2023-08-30T10:00:48;17.10;99.90
41985;DHT22;28319;48.116;10.818;2023-08-30T10:05:52;16.80;99.90
41985;DHT22;28319;48.116;10.818;2023-08-30T10:10:55;17.10;99.90
41985;DHT22;28319;48.116;10.818;2023-08-30T10:16:01;17.20;99.90
41985;DHT22;28319;48.116;10.818;2023-08-30T10:21:07;16.90;99.90
41985;DHT22;28319;48.116;10.818;2023-08-30T10:26:11;16.90;99.90
41985;DHT22;28319;48.116;10.818;2023-08-30T10:31:17;16.70;99.90
41985;DHT22;28319;48.116;10.818;2023-08-30T10:36:24;16.60;99.90
41985;DHT22;28319;48.116;10.818;2023-08-30T10:41:26;16.50;99.90
41985;DHT22;28319;48.116;10.818;2023-08-30T10:46:32;16.40;99.90
41985;DHT22;28319;48.116;10.818;2023-08-30T10:51:38;16.30;99.90
41985;DHT22;28319;48.116;10.818;2023-08-30T10:56:48;16.20;99.90
41985;DHT22;28319;48.116;10.818;2023-08-30T11:01:51;16.20;99.90
41985;DHT22;28319;48.116;10.818;2023-08-30T11:06:55;16.00;99.90
41985;DHT22;28319;48.116;10.818;2023-08-30T11:11:57;16.10;99.90
41985;DHT22;28319;48.116;10.818;2023-08-30T11:17:09;16.20;99.90
41985;DHT22;28319;48.116;10.818;2023-08-30T11:22:14;16.10;99.90
41985;DHT22;28319;48.116;10.818;2023-08-30T11:27:17;16.00;99.90
41985;DHT22;28319;48.116;10.818;2023-08-30T11:32:20;16.20;99.90
41985;DHT22;28319;48.116;10.818;2023-08-30T11:37:23;16.20;99.90
41985;DHT22;28319;48.116;10.818;2023-08-30T11:42:30;16.30;99.90
41985;DHT22;28319;48.116;10.818;2023-08-30T11:47:32;16.40;99.90
41985;DHT22;28319;48.116;10.818;2023-08-30T11:52:35;16.50;99.90
41985;DHT22;28319;48.116;10.818;2023-08-30T11:57:39;16.50;99.90
41985;DHT22;28319;48.116;10.818;2023-08-30T12:02:46;16.50;99.90
41985;DHT22;28319;48.116;10.818;2023-08-30T12:07:50;16.40;99.90
41985;DHT22;28319;48.116;10.818;2023-08-30T12:12:52;16.50;99.90
41985;DHT22;28319;48.116;10.818;2023-08-30T12:17:54;16.40;99.90
41985;DHT22;28319;48.116;10.818;2023-08-30T12:22:58;16.50;99.90
41985;DHT22;28319;48.116;10.818;2023-08-30T12:28:00;16.50;99.90
41985;DHT22;28319;48.116;10.818;2023-08-30T12:33:04;16.60;99.90
41985;DHT22;28319;48.116;10.818;2023-08-30T12:38:08;16.50;99.90
41985;DHT22;28319;48.116;10.818;2023-08-30T12:43:10;16.60;99.90
41985;DHT22;28319;48.116;10.818;2023-08-30T12:48:13;16.60;99.90
41985;DHT22;28319;48.116;10.818;2023-08-30T12:53:17;16.70;99.90
41985;DHT22;28319;48.116;10.818;2023-08-30T12:58:19;16.60;99.90
41985;DHT22;28319;48.116;10.818;2023-08-30T13:03:21;16.70;99.90
41985;DHT22;28319;48.116;10.818;2023-08-30T13:08:25;16.90;99.90
41985;DHT22;28319;48.116;10.818;2023-08-30T13:13:28;17.40;99.90
41985;DHT22;28319;48.116;10.818;2023-08-30T13:18:31;17.40;99.90
41985;DHT22;28319;48.116;10.818;2023-08-30T13:23:34;17.50;99.90
41985;DHT22;28319;48.116;10.818;2023-08-30T13:28:36;17.40;99.90
41985;DHT22;28319;48.116;10.818;2023-08-30T13:33:39;17.40;99.90
41985;DHT22;28319;48.116;10.818;2023-08-30T13:38:42;17.50;99.90
41985;DHT22;28319;48.116;10.818;2023-08-30T13:43:44;17.40;99.90
41985;DHT22;28319;48.116;10.818;2023-08-30T13:48:46;17.60;99.90
41985;DHT22;28319;48.116;10.818;2023-08-30T13:53:51;17.70;99.90
41985;DHT22;28319;48.116;10.818;2023-08-30T13:58:53;18.20;99.90
41985;DHT22;28319;48.116;10.818;2023-08-30T14:03:55;17.90;99.90
41985;DHT22;28319;48.116;10.818;2023-08-30T14:08:58;17.70;99.90
41985;DHT22;28319;48.116;10.818;2023-08-30T14:14:00;17.70;99.90
41985;DHT22;28319;48.116;10.818;2023-08-30T14:19:02;17.50;99.90
41985;DHT22;28319;48.116;10.818;2023-08-30T14:24:08;17.50;99.90
41985;DHT22;28319;48.116;10.818;2023-08-30T14:29:10;17.50;99.90
41985;DHT22;28319;48.116;10.818;2023-08-30T14:34:12;17.60;99.90
41985;DHT22;28319;48.116;10.818;2023-08-30T14:39:15;17.50;99.90
41985;DHT22;28319;48.116;10.818;2023-08-30T14:44:17;17.40;99.90
41985;DHT22;28319;48.116;10.818;2023-08-30T14:49:20;17.50;99.90
41985;DHT22;28319;48.116;10.818;2023-08-30T14:54:24;17.50;99.90
41985;DHT22;28319;48.116;10.818;2023-08-30T14:59:26;17.40;99.90
41985;DHT22;28319;48.116;10.818;2023-08-30T15:04:28;17.40;99.90
41985;DHT22;28319;48.116;10.818;2023-08-30T15:09:32;17.40;99.90
41985;DHT22;28319;48.116;10.818;2023-08-30T15:14:34;17.30;99.90
41985;DHT22;28319;48.116;10.818;2023-08-30T15:19:36;17.40;99.90
41985;DHT22;28319;48.116;10.818;2023-08-30T15:24:40;17.40;99.90
41985;DHT22;28319;48.116;10.818;2023-08-30T15:29:42;17.40;99.90
41985;DHT22;28319;48.116;10.818;2023-08-30T15:34:44;17.60;99.90
41985;DHT22;28319;48.116;10.818;2023-08-30T15:39:58;17.60;99.90
41985;DHT22;28319;48.116;10.818;2023-08-30T15:45:04;17.70;99.90
41985;DHT22;28319;48.116;10.818;2023-08-30T15:50:07;17.70;99.90
41985;DHT22;28319;48.116;10.818;2023-08-30T15:55:11;17.60;99.90
41985;DHT22;28319;48.116;10.818;2023-08-30T16:00:14;17.60;99.90
41985;DHT22;28319;48.116;10.818;2023-08-30T16:05:16;17.40;99.90
41985;DHT22;28319;48.116;10.818;2023-08-30T16:10:20;17.50;99.90
41985;DHT22;28319;48.116;10.818;2023-08-30T16:15:22;17.50;99.90
41985;DHT22;28319;48.116;10.818;2023-08-30T16:20:27;17.50;99.90
41985;DHT22;28319;48.116;10.818;2023-08-30T16:25:33;17.50;99.90
41985;DHT22;28319;48.116;10.818;2023-08-30T16:30:35;17.40;99.90
41985;DHT22;28319;48.116;10.818;2023-08-30T16:35:37;17.40;99.90
41985;DHT22;28319;48.116;10.818;2023-08-30T16:40:41;17.50;99.90
41985;DHT22;28319;48.116;10.818;2023-08-30T16:45:43;17.50;99.90
41985;DHT22;28319;48.116;10.818;2023-08-30T16:50:44;17.50;99.90
41985;DHT22;28319;48.116;10.818;2023-08-30T16:55:48;17.50;99.90
41985;DHT22;28319;48.116;10.818;2023-08-30T17:00:50;17.50;99.90
41985;DHT22;28319;48.116;10.818;2023-08-30T17:05:52;17.50;99.90
41985;DHT22;28319;48.116;10.818;2023-08-30T17:11:02;17.40;99.90
41985;DHT22;28319;48.116;10.818;2023-08-30T17:16:04;17.40;99.90
41985;DHT22;28319;48.116;10.818;2023-08-30T17:21:08;17.40;99.90
41985;DHT22;28319;48.116;10.818;2023-08-30T17:26:14;17.40;99.90
41985;DHT22;28319;48.116;10.818;2023-08-30T17:31:16;17.50;99.90
41985;DHT22;28319;48.116;10.818;2023-08-30T17:36:23;17.50;99.90
41985;DHT22;28319;48.116;10.818;2023-08-30T17:41:27;17.40;99.90
41985;DHT22;28319;48.116;10.818;2023-08-30T17:46:29;17.20;99.90
41985;DHT22;28319;48.116;10.818;2023-08-30T17:51:33;17.10;99.90
41985;DHT22;28319;48.116;10.818;2023-08-30T17:56:36;17.00;99.90
41985;DHT22;28319;48.116;10.818;2023-08-30T18:01:38;17.00;99.90
41985;DHT22;28319;48.116;10.818;2023-08-30T18:06:40;16.70;99.90
41985;DHT22;28319;48.116;10.818;2023-08-30T18:11:44;16.70;99.90
41985;DHT22;28319;48.116;10.818;2023-08-30T18:16:46;16.50;99.90
41985;DHT22;28319;48.116;10.818;2023-08-30T18:21:48;16.50;99.90
41985;DHT22;28319;48.116;10.818;2023-08-30T18:26:51;16.40;99.90
41985;DHT22;28319;48.116;10.818;2023-08-30T18:31:54;16.30;99.90
41985;DHT22;28319;48.116;10.818;2023-08-30T18:36:57;16.20;99.90
41985;DHT22;28319;48.116;10.818;2023-08-30T18:42:03;16.20;99.90
41985;DHT22;28319;48.116;10.818;2023-08-30T18:47:06;16.20;99.90
41985;DHT22;28319;48.116;10.818;2023-08-30T18:52:11;16.10;99.90
41985;DHT22;28319;48.116;10.818;2023-08-30T18:57:15;16.00;99.90
41985;DHT22;28319;48.116;10.818;2023-08-30T19:02:17;16.00;99.90
41985;DHT22;28319;48.116;10.818;2023-08-30T19:07:19;15.90;99.90
41985;DHT22;28319;48.116;10.818;2023-08-30T19:12:22;15.80;99.90
41985;DHT22;28319;48.116;10.818;2023-08-30T19:17:24;15.80;99.90
41985;DHT22;28319;48.116;10.818;2023-08-30T19:22:26;15.90;99.90
41985;DHT22;28319;48.116;10.818;2023-08-30T19:27:30;15.70;99.90
41985;DHT22;28319;48.116;10.818;2023-08-30T19:32:32;15.70;99.90
41985;DHT22;28319;48.116;10.818;2023-08-30T19:37:34;15.60;99.90
41985;DHT22;28319;48.116;10.818;2023-08-30T19:42:38;15.70;99.90
41985;DHT22;28319;48.116;10.818;2023-08-30T19:47:40;15.60;99.90
41985;DHT22;28319;48.116;10.818;2023-08-30T19:52:42;15.50;99.90
41985;DHT22;28319;48.116;10.818;2023-08-30T19:57:45;15.50;99.90
41985;DHT22;28319;48.116;10.818;2023-08-30T20:02:48;15.40;99.90
41985;DHT22;28319;48.116;10.818;2023-08-30T20:07:50;15.40;99.90
41985;DHT22;28319;48.116;10.818;2023-08-30T20:12:53;15.40;99.90
41985;DHT22;28319;48.116;10.818;2023-08-30T20:17:55;15.40;99.90
41985;DHT22;28319;48.116;10.818;2023-08-30T20:22:58;15.30;99.90
41985;DHT22;28319;48.116;10.818;2023-08-30T20:28:01;15.30;99.90
41985;DHT22;28319;48.116;10.818;2023-08-30T20:33:04;15.30;99.90
41985;DHT22;28319;48.116;10.818;2023-08-30T20:38:06;15.20;99.90
41985;DHT22;28319;48.116;10.818;2023-08-30T20:43:09;15.20;99.90
41985;DHT22;28319;48.116;10.818;2023-08-30T20:48:11;15.10;99.90
41985;DHT22;28319;48.116;10.818;2023-08-30T20:53:13;15.10;99.90
41985;DHT22;28319;48.116;10.818;2023-08-30T20:58:17;15.00;99.90
41985;DHT22;28319;48.116;10.818;2023-08-30T21:03:19;14.90;99.90
41985;DHT22;28319;48.116;10.818;2023-08-30T21:08:21;15.00;99.90
41985;DHT22;28319;48.116;10.818;2023-08-30T21:13:26;14.90;99.90
41985;DHT22;28319;48.116;10.818;2023-08-30T21:18:28;14.90;99.90
41985;DHT22;28319;48.116;10.818;2023-08-30T21:23:30;14.80;99.90
41985;DHT22;28319;48.116;10.818;2023-08-30T21:28:34;14.70;99.90
41985;DHT22;28319;48.116;10.818;2023-08-30T21:33:36;14.70;99.90
41985;DHT22;28319;48.116;10.818;2023-08-30T21:38:38;14.60;99.90
41985;DHT22;28319;48.116;10.818;2023-08-30T21:43:41;14.40;99.90
41985;DHT22;28319;48.116;10.818;2023-08-30T21:48:44;14.40;99.90
41985;DHT22;28319;48.116;10.818;2023-08-30T21:53:46;14.30;99.90
41985;DHT22;28319;48.116;10.818;2023-08-30T21:58:49;14.30;99.90
41985;DHT22;28319;48.116;10.818;2023-08-30T22:03:54;14.20;99.90
41985;DHT22;28319;48.116;10.818;2023-08-30T22:08:56;14.10;99.90
41985;DHT22;28319;48.116;10.818;2023-08-30T22:14:00;14.10;99.90
41985;DHT22;28319;48.116;10.818;2023-08-30T22:19:05;14.00;99.90
41985;DHT22;28319;48.116;10.818;2023-08-30T22:24:07;13.90;99.90
41985;DHT22;28319;48.116;10.818;2023-08-30T22:29:11;13.90;99.90
41985;DHT22;28319;48.116;10.818;2023-08-30T22:34:13;13.70;99.90
41985;DHT22;28319;48.116;10.818;2023-08-30T22:39:16;13.70;99.90
41985;DHT22;28319;48.116;10.818;2023-08-30T22:44:19;13.70;99.90
41985;DHT22;28319;48.116;10.818;2023-08-30T22:49:21;13.70;99.90
41985;DHT22;28319;48.116;10.818;2023-08-30T22:54:23;13.60;99.90
41985;DHT22;28319;48.116;10.818;2023-08-30T22:59:27;13.60;99.90
41985;DHT22;28319;48.116;10.818;2023-08-30T23:04:30;13.50;99.90
41985;DHT22;28319;48.116;10.818;2023-08-30T23:09:34;13.40;99.90
41985;DHT22;28319;48.116;10.818;2023-08-30T23:14:38;13.40;99.90
41985;DHT22;28319;48.116;10.818;2023-08-30T23:19:41;13.30;99.90
41985;DHT22;28319;48.116;10.818;2023-08-30T23:24:43;13.40;99.90
41985;DHT22;28319;48.116;10.818;2023-08-30T23:29:47;13.30;99.90
41985;DHT22;28319;48.116;10.818;2023-08-30T23:34:49;13.20;99.90
41985;DHT22;28319;48.116;10.818;2023-08-30T23:39:51;13.20;99.90
41985;DHT22;28319;48.116;10.818;2023-08-30T23:44:55;13.20;99.90
41985;DHT22;28319;48.116;10.818;2023-08-30T23:49:57;13.10;99.90
41985;DHT22;28319;48.116;10.818;2023-08-30T23:55:01;13.10;99.90
